createdAt,value
2023-04-01T00:02:26.130Z,10.30
2023-04-01T00:05:15.136Z,10.30
2023-04-01T00:08:03.568Z,10.30
2023-04-01T00:10:52.556Z,10.30
2023-04-01T00:13:42.988Z,10.30
2023-04-01T00:16:31.509Z,10.20
2023-04-01T00:19:20.374Z,10.20
2023-04-01T00:22:12.415Z,10.20
2023-04-01T00:25:00.883Z,10.20
2023-04-01T00:27:50.287Z,10.20
2023-04-01T00:30:40.799Z,10.20
2023-04-01T00:33:29.368Z,10.20
2023-04-01T00:36:20.364Z,10.20
2023-04-01T00:39:08.947Z,10.20
2023-04-01T00:41:58.384Z,10.20
2023-04-01T00:44:50.010Z,10.20
2023-04-01T00:47:39.971Z,10.20
2023-04-01T00:50:30.803Z,10.20
2023-04-01T00:53:21.472Z,10.20
2023-04-01T00:56:16.663Z,10.20
2023-04-01T00:59:11.825Z,10.20
2023-04-01T01:02:02.216Z,10.20
2023-04-01T01:04:52.751Z,10.20
2023-04-01T01:08:05.313Z,10.20
2023-04-01T01:10:54.257Z,10.20
2023-04-01T01:13:52.477Z,10.10
2023-04-01T01:16:48.220Z,10.10
2023-04-01T01:20:26.328Z,10.10
2023-04-01T01:23:57.333Z,10.10
2023-04-01T01:27:01.417Z,10.10
2023-04-01T01:30:24.180Z,10.10
2023-04-01T01:33:42.775Z,10.10
2023-04-01T01:36:36.069Z,10.10
2023-04-01T01:39:34.008Z,10.10
2023-04-01T01:42:26.485Z,10.10
2023-04-01T01:45:20.341Z,10.10
2023-04-01T01:48:11.275Z,10.10
2023-04-01T01:51:01.645Z,10.10
2023-04-01T01:53:51.643Z,10.10
2023-04-01T01:56:47.219Z,10.10
2023-04-01T01:59:40.527Z,10.10
2023-04-01T02:02:32.486Z,10.10
2023-04-01T02:05:26.121Z,10.10
2023-04-01T02:08:24.727Z,10.10
2023-04-01T02:11:20.077Z,10.10
2023-04-01T02:14:17.550Z,10.10
2023-04-01T02:17:11.012Z,10.10
2023-04-01T02:20:06.550Z,10.10
2023-04-01T02:23:00.573Z,10.00
2023-04-01T02:25:49.873Z,10.00
2023-04-01T02:28:43.117Z,10.00
2023-04-01T02:31:32.937Z,10.00
2023-04-01T02:34:23.332Z,10.00
2023-04-01T02:37:14.200Z,10.00
2023-04-01T02:40:03.897Z,10.00
2023-04-01T02:42:52.937Z,10.00
2023-04-01T02:45:42.854Z,10.00
2023-04-01T02:48:31.375Z,10.00
2023-04-01T02:51:20.773Z,10.00
2023-04-01T02:54:09.280Z,10.00
2023-04-01T02:56:57.972Z,9.90
2023-04-01T02:59:46.594Z,9.90
2023-04-01T03:02:37.372Z,9.90
2023-04-01T03:05:26.419Z,9.90
2023-04-01T03:08:15.529Z,9.90
2023-04-01T03:11:04.507Z,9.90
2023-04-01T03:13:56.352Z,9.90
2023-04-01T03:16:45.284Z,9.90
2023-04-01T03:19:35.631Z,9.90
2023-04-01T03:22:27.801Z,9.90
2023-04-01T03:25:16.470Z,9.90
2023-04-01T03:28:05.836Z,9.90
2023-04-01T03:30:54.451Z,9.90
2023-04-01T03:33:43.179Z,9.90
2023-04-01T03:36:33.010Z,9.90
2023-04-01T03:39:21.586Z,9.90
2023-04-01T03:42:10.520Z,9.90
2023-04-01T03:44:59.026Z,9.90
2023-04-01T03:47:47.616Z,10.00
2023-04-01T03:50:37.136Z,10.00
2023-04-01T03:53:27.902Z,10.00
2023-04-01T03:56:19.562Z,10.00
2023-04-01T03:59:10.347Z,10.00
2023-04-01T04:01:58.983Z,10.00
2023-04-01T04:04:48.199Z,10.00
2023-04-01T04:07:37.421Z,10.00
2023-04-01T04:10:30.257Z,10.00
2023-04-01T04:13:18.772Z,10.00
2023-04-01T04:16:13.223Z,10.00
2023-04-01T04:19:06.701Z,10.00
2023-04-01T04:21:55.510Z,10.00
2023-04-01T04:24:44.123Z,9.90
2023-04-01T04:27:37.147Z,10.00
2023-04-01T04:30:29.859Z,9.90
2023-04-01T04:33:18.397Z,9.90
2023-04-01T04:36:07.989Z,9.90
2023-04-01T04:38:56.660Z,9.90
2023-04-01T04:41:45.265Z,9.90
2023-04-01T04:44:35.085Z,9.90
2023-04-01T04:47:23.648Z,9.90
2023-04-01T04:50:12.779Z,9.90
2023-04-01T04:53:02.706Z,9.90
2023-04-01T04:55:53.782Z,9.90
2023-04-01T04:59:01.546Z,9.90
2023-04-01T05:02:03.828Z,9.90
2023-04-01T05:04:52.369Z,9.90
2023-04-01T05:07:40.974Z,9.90
2023-04-01T05:10:29.868Z,9.90
2023-04-01T05:13:18.416Z,9.90
2023-04-01T05:16:11.702Z,9.90
2023-04-01T05:19:01.649Z,9.90
2023-04-01T05:21:50.286Z,9.90
2023-04-01T05:24:38.726Z,9.90
2023-04-01T05:27:27.395Z,9.90
2023-04-01T05:30:16.138Z,9.90
2023-04-01T05:33:17.787Z,9.90
2023-04-01T05:36:13.340Z,9.90
2023-04-01T05:39:02.053Z,9.90
2023-04-01T05:41:51.031Z,9.90
2023-04-01T05:44:39.693Z,9.90
2023-04-01T05:47:28.165Z,9.90
2023-04-01T05:50:17.336Z,9.90
2023-04-01T05:53:07.127Z,10.00
2023-04-01T05:55:55.716Z,10.00
2023-04-01T05:58:44.232Z,10.00
2023-04-01T06:01:32.969Z,10.00
2023-04-01T06:04:22.131Z,10.00
2023-04-01T06:07:14.799Z,10.00
2023-04-01T06:10:14.165Z,10.00
2023-04-01T06:13:18.114Z,10.00
2023-04-01T06:16:18.017Z,10.00
2023-04-01T06:19:21.695Z,10.00
2023-04-01T06:22:58.932Z,10.00
2023-04-01T06:26:08.957Z,10.10
2023-04-01T06:29:57.014Z,10.10
2023-04-01T06:33:05.450Z,10.10
2023-04-01T06:36:16.836Z,10.10
2023-04-01T06:39:43.979Z,10.10
2023-04-01T06:43:03.750Z,10.10
2023-04-01T06:46:20.419Z,10.10
2023-04-01T06:49:50.774Z,10.10
2023-04-01T06:53:16.761Z,10.10
2023-04-01T06:56:29.006Z,10.10
2023-04-01T06:59:31.891Z,10.10
2023-04-01T07:02:34.274Z,10.10
2023-04-01T07:05:23.181Z,10.20
2023-04-01T07:08:17.934Z,10.10
2023-04-01T07:11:11.796Z,10.20
2023-04-01T07:14:32.386Z,10.20
2023-04-01T07:17:28.165Z,10.20
2023-04-01T07:20:22.835Z,10.20
2023-04-01T07:23:24.755Z,10.20
2023-04-01T07:26:28.702Z,10.20
2023-04-01T07:29:20.757Z,10.20
2023-04-01T07:32:36.219Z,10.20
2023-04-01T07:35:35.945Z,10.20
2023-04-01T07:38:37.484Z,10.20
2023-04-01T07:41:35.495Z,10.20
2023-04-01T07:44:37.232Z,10.30
2023-04-01T07:47:50.181Z,10.30
2023-04-01T07:50:50.515Z,10.30
2023-04-01T07:53:51.694Z,10.30
2023-04-01T07:56:51.997Z,10.30
2023-04-01T08:00:01.837Z,10.30
2023-04-01T08:03:43.262Z,10.30
2023-04-01T08:06:42.075Z,10.30
2023-04-01T08:09:46.474Z,10.30
2023-04-01T08:13:07.908Z,10.30
2023-04-01T08:16:43.738Z,10.30
2023-04-01T08:20:03.981Z,10.30
2023-04-01T08:23:02.665Z,10.30
2023-04-01T08:26:04.642Z,10.30
2023-04-01T08:29:06.111Z,10.30
2023-04-01T08:32:02.926Z,10.40
2023-04-01T08:35:09.104Z,10.30
2023-04-01T08:38:08.173Z,10.40
2023-04-01T08:41:23.961Z,10.40
2023-04-01T08:45:14.426Z,10.40
2023-04-01T08:48:58.643Z,10.40
2023-04-01T08:52:24.356Z,10.40
2023-04-01T08:55:34.287Z,10.50
2023-04-01T08:59:21.978Z,10.50
2023-04-01T09:02:53.213Z,10.50
2023-04-01T09:06:37.103Z,10.50
2023-04-01T09:09:56.400Z,10.60
2023-04-01T09:13:08.133Z,10.60
2023-04-01T09:16:15.667Z,10.60
2023-04-01T09:19:22.666Z,10.60
2023-04-01T09:22:33.147Z,10.60
2023-04-01T09:25:52.977Z,10.60
2023-04-01T09:28:56.777Z,10.60
2023-04-01T09:32:36.382Z,10.60
2023-04-01T09:35:47.731Z,10.70
2023-04-01T09:38:57.592Z,10.70
2023-04-01T09:42:06.358Z,10.70
2023-04-01T09:45:03.320Z,10.80
2023-04-01T09:48:11.080Z,10.80
2023-04-01T09:51:12.902Z,10.80
2023-04-01T09:54:19.048Z,10.90
2023-04-01T09:58:01.143Z,10.90
2023-04-01T10:02:14.228Z,10.90
2023-04-01T10:05:56.376Z,11.00
2023-04-01T10:09:27.845Z,11.00
2023-04-01T10:12:49.108Z,11.00
2023-04-01T10:16:21.720Z,11.00
2023-04-01T10:20:24.511Z,11.10
2023-04-01T10:23:50.625Z,11.10
2023-04-01T10:27:38.601Z,11.10
2023-04-01T10:31:20.786Z,11.20
2023-04-01T10:35:11.098Z,11.20
2023-04-01T10:38:41.557Z,11.30
2023-04-01T10:42:22.332Z,11.30
2023-04-01T10:46:31.697Z,11.40
2023-04-01T10:49:49.249Z,11.50
2023-04-01T10:53:34.598Z,11.60
2023-04-01T10:56:48.005Z,11.60
2023-04-01T11:00:39.753Z,11.70
2023-04-01T11:19:32.571Z,11.80
2023-04-01T11:23:24.631Z,12.40
2023-04-01T11:26:35.272Z,12.40
2023-04-01T11:30:22.419Z,12.40
2023-04-01T11:33:23.218Z,12.30
2023-04-01T11:36:32.621Z,12.40
2023-04-01T11:39:38.475Z,12.40
2023-04-01T11:43:32.265Z,12.30
2023-04-01T11:47:12.361Z,12.30
2023-04-01T11:50:20.545Z,12.40
2023-04-01T11:53:25.342Z,12.40
2023-04-01T11:56:54.722Z,12.40
2023-04-01T12:00:19.242Z,12.40
2023-04-01T12:03:37.674Z,12.40
2023-04-01T12:06:42.768Z,12.40
2023-04-01T12:09:49.109Z,12.30
2023-04-01T12:13:00.112Z,12.30
2023-04-01T12:16:34.529Z,12.30
2023-04-01T12:19:41.546Z,12.30
2023-04-01T12:22:50.135Z,12.30
2023-04-01T12:26:14.695Z,12.30
2023-04-01T12:29:48.232Z,12.30
2023-04-01T12:32:48.014Z,12.30
2023-04-01T12:35:55.744Z,12.40
2023-04-01T12:39:13.570Z,12.40
2023-04-01T12:42:18.653Z,12.40
2023-04-01T12:45:32.161Z,12.50
2023-04-01T12:49:12.492Z,12.50
2023-04-01T12:52:11.825Z,12.50
2023-04-01T12:55:37.179Z,12.60
2023-04-01T12:59:19.643Z,12.60
2023-04-01T13:02:20.776Z,12.70
2023-04-01T13:05:33.550Z,12.80
2023-04-01T13:08:45.279Z,12.90
2023-04-01T13:11:50.504Z,12.90
2023-04-01T13:17:43.037Z,13.00
2023-04-01T13:20:46.597Z,13.00
2023-04-01T13:24:01.270Z,13.00
2023-04-01T13:27:02.496Z,13.10
2023-04-01T13:30:12.725Z,13.10
2023-04-01T13:33:17.907Z,13.10
2023-04-01T13:36:25.515Z,13.20
2023-04-01T13:39:38.061Z,13.20
2023-04-01T13:42:33.608Z,13.20
2023-04-01T13:45:27.372Z,13.20
2023-04-01T13:48:40.291Z,13.20
2023-04-01T13:52:08.109Z,13.20
2023-04-01T14:00:30.910Z,13.20
2023-04-01T14:03:34.542Z,13.20
2023-04-01T14:06:35.981Z,13.20
2023-04-01T14:09:46.386Z,13.20
2023-04-01T14:12:44.679Z,13.20
2023-04-01T14:15:57.400Z,13.20
2023-04-01T14:19:09.725Z,13.20
2023-04-01T14:22:13.971Z,13.10
2023-04-01T14:25:39.601Z,13.10
2023-04-01T14:28:38.519Z,13.10
2023-04-01T14:31:51.663Z,13.10
2023-04-01T14:35:02.281Z,13.00
2023-04-01T14:38:27.745Z,13.00
2023-04-01T14:41:35.897Z,13.00
2023-04-01T14:45:11.040Z,13.00
2023-04-01T14:48:17.665Z,13.10
2023-04-01T14:51:20.166Z,13.00
2023-04-01T14:54:39.607Z,13.00
2023-04-01T14:58:09.266Z,13.00
2023-04-01T15:01:55.567Z,13.00
2023-04-01T15:05:20.657Z,13.00
2023-04-01T15:09:04.661Z,13.00
2023-04-01T15:12:36.726Z,13.00
2023-04-01T15:16:16.834Z,13.00
2023-04-01T15:19:31.886Z,12.90
2023-04-01T15:23:40.432Z,12.90
2023-04-01T15:27:13.309Z,12.90
2023-04-01T15:30:29.775Z,12.80
2023-04-01T15:34:17.185Z,12.80
2023-04-01T15:37:47.570Z,12.80
2023-04-01T15:40:59.186Z,12.80
2023-04-01T15:43:54.238Z,12.80
2023-04-01T15:46:54.397Z,12.80
2023-04-01T15:49:59.956Z,12.80
2023-04-01T15:53:18.272Z,12.80
2023-04-01T15:56:31.996Z,12.70
2023-04-01T16:00:03.342Z,12.70
2023-04-01T16:03:31.999Z,12.70
2023-04-01T16:07:01.074Z,12.70
2023-04-01T16:10:16.698Z,12.70
2023-04-01T16:13:29.632Z,12.70
2023-04-01T16:16:41.503Z,12.60
2023-04-01T16:19:58.842Z,12.60
2023-04-01T16:23:16.117Z,12.60
2023-04-01T16:26:19.582Z,12.70
2023-04-01T16:29:41.066Z,12.70
2023-04-01T16:33:08.371Z,12.70
2023-04-01T16:36:17.296Z,12.70
2023-04-01T16:39:42.662Z,12.60
2023-04-01T16:42:46.786Z,12.60
2023-04-01T16:45:45.594Z,12.60
2023-04-01T16:49:06.683Z,12.70
2023-04-01T16:52:06.890Z,12.70
2023-04-01T16:55:04.045Z,12.70
2023-04-01T16:57:59.606Z,12.70
2023-04-01T17:00:54.364Z,12.70
2023-04-01T17:03:48.287Z,12.70
2023-04-01T17:06:59.301Z,12.70
2023-04-01T17:10:17.574Z,12.60
2023-04-01T17:13:49.611Z,12.60
2023-04-01T17:17:37.935Z,12.50
2023-04-01T17:20:53.394Z,12.50
2023-04-01T17:24:03.296Z,12.50
2023-04-01T17:27:06.808Z,12.40
2023-04-01T17:30:20.399Z,12.40
2023-04-01T17:33:50.979Z,12.40
2023-04-01T17:37:03.198Z,12.30
2023-04-01T17:40:04.824Z,12.30
2023-04-01T17:43:09.802Z,12.20
2023-04-01T17:46:05.560Z,12.20
2023-04-01T17:49:02.662Z,12.10
2023-04-01T17:52:06.325Z,12.10
2023-04-01T17:55:07.393Z,12.10
2023-04-01T17:58:09.470Z,12.00
2023-04-01T18:01:35.103Z,11.90
2023-04-01T18:05:08.367Z,11.90
2023-04-01T18:09:04.660Z,11.80
2023-04-01T18:12:27.178Z,11.80
2023-04-01T18:16:07.434Z,11.70
2023-04-01T18:19:11.548Z,11.60
2023-04-01T18:22:28.376Z,11.50
2023-04-01T18:25:47.472Z,11.50
2023-04-01T18:29:00.153Z,11.40
2023-04-01T18:32:16.383Z,11.30
2023-04-01T18:35:33.010Z,11.30
2023-04-01T18:39:21.174Z,11.30
2023-04-01T18:56:32.485Z,11.00
2023-04-01T19:00:07.893Z,11.00
2023-04-01T19:03:51.985Z,10.90
2023-04-01T19:10:39.118Z,10.80
2023-04-01T19:14:03.724Z,10.80
2023-04-01T19:17:11.126Z,10.80
2023-04-01T19:20:36.006Z,10.70
2023-04-01T19:24:27.513Z,10.70
2023-04-01T19:55:41.693Z,10.10
2023-04-01T19:58:43.631Z,10.10
2023-04-01T20:01:45.203Z,10.10
2023-04-01T20:04:42.948Z,10.00
2023-04-01T20:07:39.696Z,9.90
2023-04-01T20:10:38.664Z,9.90
2023-04-01T20:13:38.448Z,9.80
2023-04-01T20:16:52.345Z,9.80
2023-04-01T20:19:47.801Z,9.80
2023-04-01T20:23:04.439Z,9.70
2023-04-01T20:26:00.895Z,9.70
2023-04-01T20:29:06.849Z,9.60
2023-04-01T20:32:11.070Z,9.60
2023-04-01T20:35:42.038Z,9.60
2023-04-01T20:39:34.800Z,9.50
2023-04-01T20:42:48.351Z,9.50
2023-04-01T20:45:50.692Z,9.50
2023-04-01T20:49:09.521Z,9.50
2023-04-01T20:52:19.138Z,9.40
2023-04-01T20:56:01.040Z,9.30
2023-04-01T20:59:18.304Z,9.30
2023-04-01T21:02:30.346Z,9.20
2023-04-01T21:06:03.516Z,9.20
2023-04-01T21:09:23.448Z,9.20
2023-04-01T21:12:32.635Z,9.10
2023-04-01T21:15:43.902Z,9.10
2023-04-01T21:19:27.619Z,9.10
2023-04-01T21:22:44.577Z,9.10
2023-04-01T21:25:52.865Z,9.00
2023-04-01T21:29:21.619Z,9.00
2023-04-01T21:32:38.427Z,8.90
2023-04-01T21:35:42.002Z,8.90
2023-04-01T21:39:18.109Z,8.80
2023-04-01T21:42:34.784Z,8.80
2023-04-01T21:45:39.809Z,8.70
2023-04-01T21:49:13.072Z,8.70
2023-04-01T21:52:32.222Z,8.60
2023-04-01T21:56:09.607Z,8.60
2023-04-01T21:59:42.814Z,8.60
2023-04-01T22:03:26.770Z,8.60
2023-04-01T22:06:31.346Z,8.50
2023-04-01T22:09:31.627Z,8.50
2023-04-01T22:12:33.007Z,8.40
2023-04-01T22:15:34.046Z,8.40
2023-04-01T22:18:29.911Z,8.40
2023-04-01T22:21:35.770Z,8.40
2023-04-01T22:24:35.917Z,8.40
2023-04-01T22:27:35.543Z,8.40
2023-04-01T22:30:29.276Z,8.40
2023-04-01T23:25:46.298Z,7.80
2023-04-01T23:28:51.786Z,7.80
2023-04-01T23:32:00.804Z,7.70
2023-04-01T23:34:58.530Z,7.70
2023-04-01T23:37:48.938Z,7.70
2023-04-01T23:40:43.538Z,7.60
2023-04-01T23:43:37.810Z,7.60
2023-04-01T23:46:27.821Z,7.60
2023-04-01T23:49:32.091Z,7.50
2023-04-01T23:52:26.335Z,7.50
2023-04-01T23:55:28.246Z,7.40
2023-04-01T23:58:30.953Z,7.40
